Time;durP1;ratioP1;P1;durP2;ratioP2;P2;SDS_P1;SDS_P2;PMS_P1;PMS_P2;Temp;Humidity;BMP_temperature;BMP_pressure;BME280_temperature;BME280_humidity;BME280_pressure;Samples;Min_cycle;Max_cycle;Signal;HPM_P1;HPM_P2
2024/02/07 00:00:15;;;;;;;10.90;6.90;;;;;;;;;;5084658;28;20541;-63
2024/02/07 00:02:41;;;;;;;10.97;7.07;;;;;;;;;;5069425;28;20445;-64
2024/02/07 00:05:09;;;;;;;16.60;7.47;;;;;;;;;;5074602;28;20537;-63
2024/02/07 00:07:36;;;;;;;13.30;7.53;;;;;;;;;;5080586;28;20979;-64
2024/02/07 00:10:03;;;;;;;9.90;7.00;;;;;;;;;;5071237;28;20452;-63
2024/02/07 00:12:29;;;;;;;11.80;6.93;;;;;;;;;;5080715;28;20471;-63
2024/02/07 00:14:56;;;;;;;11.63;6.30;;;;;;;;;;5086137;28;20451;-60
2024/02/07 00:17:22;;;;;;;10.10;7.63;;;;;;;;;;5083696;28;20451;-63
2024/02/07 00:19:50;;;;;;;10.70;6.93;;;;;;;;;;5084912;28;20490;-63
2024/02/07 00:22:18;;;;;;;13.37;6.50;;;;;;;;;;5071801;28;20459;-63
2024/02/07 00:24:44;;;;;;;10.03;6.80;;;;;;;;;;5077091;28;20483;-62
2024/02/07 00:27:11;;;;;;;13.27;6.20;;;;;;;;;;5078966;28;20798;-63
2024/02/07 00:29:37;;;;;;;11.30;6.83;;;;;;;;;;5078628;28;20445;-64
2024/02/07 00:32:04;;;;;;;10.00;6.90;;;;;;;;;;5086136;28;20488;-63
2024/02/07 00:34:33;;;;;;;14.60;7.30;;;;;;;;;;5081395;28;20521;-62
2024/02/07 00:36:59;;;;;;;9.03;6.67;;;;;;;;;;5073333;28;20448;-62
2024/02/07 00:39:28;;;;;;;10.17;5.70;;;;;;;;;;5084059;28;20504;-62
2024/02/07 00:41:54;;;;;;;7.87;6.10;;;;;;;;;;5113168;28;20482;-62
2024/02/07 00:44:21;;;;;;;12.80;6.40;;;;;;;;;;5103697;28;20452;-62
2024/02/07 00:46:47;;;;;;;12.80;7.20;;;;;;;;;;5095226;28;20510;-59
2024/02/07 00:49:13;;;;;;;10.27;7.30;;;;;;;;;;5099058;28;21245;-63
2024/02/07 00:51:40;;;;;;;9.37;6.83;;;;;;;;;;5086422;28;20486;-62
2024/02/07 00:54:08;;;;;;;7.97;7.17;;;;;;;;;;5099633;28;20491;-62
2024/02/07 00:56:36;;;;;;;4.80;3.70;;;;;;;;;;5095194;28;20810;-63
2024/02/07 00:59:02;;;;;;;4.73;2.30;;;;;;;;;;5097901;28;20444;-62
2024/02/07 01:01:29;;;;;;;1.67;1.43;;;;;;;;;;5101283;28;20458;-61
2024/02/07 01:03:56;;;;;;;1.60;1.20;;;;;;;;;;5098207;28;20464;-63
2024/02/07 01:06:22;;;;;;;1.00;1.00;;;;;;;;;;5094015;28;20495;-63
2024/02/07 01:08:49;;;;;;;1.00;1.00;;;;;;;;;;5105174;28;20454;-62
2024/02/07 01:11:15;;;;;;;1.20;1.10;;;;;;;;;;5092994;28;21093;-64
2024/02/07 01:13:47;;;;;;;1.00;0.90;;;;;;;;;;5106568;28;20446;-62
2024/02/07 01:16:13;;;;;;;1.10;1.10;;;;;;;;;;5092924;28;20464;-65
2024/02/07 01:18:40;;;;;;;1.33;1.03;;;;;;;;;;5100773;28;20478;-64
2024/02/07 01:21:07;;;;;;;1.07;1.07;;;;;;;;;;5093011;28;20456;-63
2024/02/07 01:23:33;;;;;;;4.37;1.10;;;;;;;;;;5104628;28;20466;-62
2024/02/07 01:26:01;;;;;;;1.20;1.10;;;;;;;;;;5095000;28;21327;-62
2024/02/07 01:28:27;;;;;;;1.20;1.10;;;;;;;;;;5101227;28;20937;-63
2024/02/07 01:30:55;;;;;;;1.97;1.40;;;;;;;;;;5102554;28;20450;-64
2024/02/07 01:33:22;;;;;;;1.43;1.30;;;;;;;;;;5093569;28;20494;-62
2024/02/07 01:35:48;;;;;;;1.53;1.43;;;;;;;;;;5097724;28;20482;-62
2024/02/07 01:38:17;;;;;;;1.67;1.57;;;;;;;;;;5091606;28;20502;-62
2024/02/07 01:40:48;;;;;;;2.23;1.50;;;;;;;;;;5092263;28;20467;-62
2024/02/07 01:43:15;;;;;;;2.10;1.50;;;;;;;;;;5096803;28;20848;-63
2024/02/07 01:45:42;;;;;;;1.70;1.50;;;;;;;;;;5090010;28;20494;-62
2024/02/07 01:48:11;;;;;;;2.57;1.40;;;;;;;;;;5087045;28;20477;-63
2024/02/07 01:50:40;;;;;;;1.77;1.37;;;;;;;;;;5085540;28;20467;-63
2024/02/07 01:53:07;;;;;;;1.30;1.20;;;;;;;;;;5090347;28;20906;-64
2024/02/07 01:55:35;;;;;;;1.60;1.17;;;;;;;;;;5104513;28;21061;-61
2024/02/07 01:58:01;;;;;;;2.00;1.47;;;;;;;;;;5094135;28;20463;-64
2024/02/07 02:00:28;;;;;;;1.53;1.30;;;;;;;;;;5090142;28;20489;-64
2024/02/07 02:02:55;;;;;;;2.30;1.60;;;;;;;;;;5096408;28;20450;-61
2024/02/07 02:05:25;;;;;;;3.00;1.40;;;;;;;;;;5099060;28;20446;-64
2024/02/07 02:07:53;;;;;;;2.03;1.30;;;;;;;;;;5084219;28;20486;-61
2024/02/07 02:10:20;;;;;;;8.27;1.90;;;;;;;;;;5094230;28;21006;-61
2024/02/07 02:12:47;;;;;;;1.70;1.60;;;;;;;;;;5105642;28;20507;-63
2024/02/07 02:15:14;;;;;;;1.97;1.80;;;;;;;;;;5086300;28;20487;-62
2024/02/07 02:17:40;;;;;;;6.87;1.97;;;;;;;;;;5088811;28;20438;-62
2024/02/07 02:20:07;;;;;;;3.00;1.70;;;;;;;;;;5102363;28;20499;-63
2024/02/07 02:22:54;;;;;;;5.33;2.03;;;;;;;;;;5101902;28;20527;-60
2024/02/07 02:25:34;;;;;;;2.20;1.47;;;;;;;;;;5106917;28;20638;-64
2024/02/07 02:28:07;;;;;;;3.17;1.70;;;;;;;;;;5104124;28;20446;-63
2024/02/07 02:30:47;;;;;;;2.23;1.93;;;;;;;;;;5083916;28;20494;-62
2024/02/07 02:33:18;;;;;;;4.90;1.77;;;;;;;;;;5096998;28;20487;-63
2024/02/07 02:35:46;;;;;;;4.50;1.90;;;;;;;;;;5094043;28;20450;-62
2024/02/07 02:38:13;;;;;;;6.60;1.90;;;;;;;;;;5084207;28;20550;-63
2024/02/07 02:40:39;;;;;;;6.00;2.23;;;;;;;;;;5093164;28;20999;-62
2024/02/07 02:43:06;;;;;;;8.53;2.10;;;;;;;;;;5096284;28;20454;-64
2024/02/07 02:45:32;;;;;;;2.20;1.63;;;;;;;;;;5088515;28;20457;-62
2024/02/07 02:48:01;;;;;;;4.90;2.23;;;;;;;;;;5104279;28;20531;-63
2024/02/07 02:50:28;;;;;;;6.93;2.57;;;;;;;;;;5093633;28;20451;-62
2024/02/07 02:52:56;;;;;;;5.03;1.87;;;;;;;;;;5099716;28;20459;-61
2024/02/07 02:55:22;;;;;;;3.87;2.00;;;;;;;;;;5082119;28;20864;-63
2024/02/07 02:57:50;;;;;;;2.70;1.80;;;;;;;;;;5101026;28;20515;-63
2024/02/07 03:00:20;;;;;;;3.53;2.10;;;;;;;;;;5101919;28;20452;-62
2024/02/07 03:02:47;;;;;;;4.50;2.00;;;;;;;;;;5103120;28;20450;-62
2024/02/07 03:05:37;;;;;;;2.97;1.93;;;;;;;;;;5100664;28;20474;-62
2024/02/07 03:08:15;;;;;;;3.40;2.23;;;;;;;;;;5094132;28;20839;-63
2024/02/07 03:10:42;;;;;;;4.33;2.50;;;;;;;;;;5092098;28;20459;-63
2024/02/07 03:13:09;;;;;;;2.10;2.00;;;;;;;;;;5085217;28;20455;-62
2024/02/07 03:15:35;;;;;;;2.90;2.30;;;;;;;;;;5095681;28;20458;-62
2024/02/07 03:18:02;;;;;;;4.10;2.50;;;;;;;;;;5088274;28;20467;-62
2024/02/07 03:20:33;;;;;;;3.93;3.00;;;;;;;;;;5087195;28;20469;-62
2024/02/07 03:22:59;;;;;;;2.97;2.30;;;;;;;;;;5082101;28;20471;-62
2024/02/07 03:25:26;;;;;;;3.27;2.40;;;;;;;;;;5098049;28;20458;-63
2024/02/07 03:27:52;;;;;;;2.83;2.60;;;;;;;;;;5095574;28;20651;-63
2024/02/07 03:30:21;;;;;;;4.87;2.53;;;;;;;;;;5092960;28;20456;-61
2024/02/07 03:32:48;;;;;;;3.10;2.90;;;;;;;;;;5089763;28;20453;-62
2024/02/07 03:35:15;;;;;;;3.03;2.70;;;;;;;;;;5091798;28;20457;-63
2024/02/07 03:37:43;;;;;;;2.70;2.50;;;;;;;;;;5093264;28;20978;-60
2024/02/07 03:40:13;;;;;;;10.83;2.73;;;;;;;;;;5083754;28;20480;-62
2024/02/07 03:42:41;;;;;;;2.57;2.37;;;;;;;;;;5083680;28;20459;-62
2024/02/07 03:45:09;;;;;;;6.13;2.83;;;;;;;;;;5082934;28;20574;-60
2024/02/07 03:47:39;;;;;;;5.20;2.77;;;;;;;;;;5092081;28;20500;-61
2024/02/07 03:50:10;;;;;;;3.03;2.73;;;;;;;;;;5098218;28;20566;-61
2024/02/07 03:52:37;;;;;;;7.13;3.50;;;;;;;;;;5101791;28;20890;-61
2024/02/07 03:55:05;;;;;;;3.10;2.90;;;;;;;;;;5085972;28;20447;-63
2024/02/07 03:57:31;;;;;;;6.80;3.50;;;;;;;;;;5105414;28;20431;-63
2024/02/07 03:59:58;;;;;;;2.80;2.60;;;;;;;;;;5102524;28;20477;-63
2024/02/07 04:02:25;;;;;;;2.97;2.67;;;;;;;;;;5093856;28;20467;-65
2024/02/07 04:04:52;;;;;;;3.07;2.60;;;;;;;;;;5106089;28;20453;-63
2024/02/07 04:07:18;;;;;;;3.30;2.70;;;;;;;;;;5093624;28;20473;-63
2024/02/07 04:09:45;;;;;;;7.10;3.03;;;;;;;;;;5096017;28;20741;-63
2024/02/07 05:17:17;;;;;;;3.70;2.13;;;;;;;;;;5093184;28;20436;-63
2024/02/07 05:19:44;;;;;;;4.90;2.10;;;;;;;;;;5083443;28;20466;-62
2024/02/07 05:22:11;;;;;;;3.03;2.23;;;;;;;;;;5094342;28;20584;-61
2024/02/07 05:24:39;;;;;;;4.10;2.10;;;;;;;;;;5086628;28;20483;-62
2024/02/07 05:27:06;;;;;;;6.07;2.27;;;;;;;;;;5086151;28;20478;-62
2024/02/07 05:29:33;;;;;;;5.20;2.00;;;;;;;;;;5103950;28;20472;-62
2024/02/07 05:31:59;;;;;;;3.50;1.90;;;;;;;;;;5098533;28;20478;-62
2024/02/07 05:34:27;;;;;;;2.20;2.00;;;;;;;;;;5098282;28;20443;-63
2024/02/07 05:36:54;;;;;;;2.00;1.90;;;;;;;;;;5086832;28;20447;-63
2024/02/07 05:39:22;;;;;;;2.90;1.90;;;;;;;;;;5092425;28;20479;-64
2024/02/07 05:41:48;;;;;;;1.80;1.70;;;;;;;;;;5107468;28;21014;-62
2024/02/07 05:44:15;;;;;;;3.03;2.03;;;;;;;;;;5093599;28;20450;-61
2024/02/07 05:46:42;;;;;;;2.27;2.10;;;;;;;;;;5093726;28;20511;-61
2024/02/07 05:49:09;;;;;;;3.80;2.07;;;;;;;;;;5086607;28;20447;-60
2024/02/07 05:51:37;;;;;;;1.70;1.60;;;;;;;;;;5085479;28;20475;-63
2024/02/07 05:54:04;;;;;;;2.60;2.50;;;;;;;;;;5092869;28;20478;-62
2024/02/07 05:56:30;;;;;;;2.87;2.60;;;;;;;;;;5087971;28;20472;-62
2024/02/07 05:58:57;;;;;;;2.57;2.30;;;;;;;;;;5095976;28;20447;-63
2024/02/07 06:01:24;;;;;;;2.30;2.20;;;;;;;;;;5094905;28;20448;-61
2024/02/07 06:03:52;;;;;;;3.50;1.87;;;;;;;;;;5089555;28;20861;-62
2024/02/07 06:06:19;;;;;;;2.53;1.70;;;;;;;;;;5088799;28;20456;-62
2024/02/07 06:08:49;;;;;;;2.13;1.90;;;;;;;;;;5091731;28;20483;-62
2024/02/07 06:11:15;;;;;;;1.87;1.77;;;;;;;;;;5094231;28;20465;-61
2024/02/07 06:13:42;;;;;;;5.07;2.50;;;;;;;;;;5092590;28;20454;-62
2024/02/07 06:16:08;;;;;;;2.50;2.30;;;;;;;;;;5097741;28;20483;-62
2024/02/07 06:18:35;;;;;;;2.80;1.80;;;;;;;;;;5098279;28;20858;-61
2024/02/07 06:21:02;;;;;;;2.70;1.70;;;;;;;;;;5095535;28;21189;-63
2024/02/07 06:23:28;;;;;;;1.70;1.60;;;;;;;;;;5090934;28;20489;-60
2024/02/07 06:25:56;;;;;;;1.90;1.70;;;;;;;;;;5090793;28;20475;-62
2024/02/07 06:28:22;;;;;;;2.10;1.70;;;;;;;;;;5090945;28;20536;-63
2024/02/07 06:30:49;;;;;;;1.70;1.60;;;;;;;;;;5097902;28;20510;-60
2024/02/07 06:33:16;;;;;;;2.17;2.07;;;;;;;;;;5088587;28;20483;-60
2024/02/07 06:35:43;;;;;;;1.80;1.70;;;;;;;;;;5095668;28;20453;-62
2024/02/07 06:38:09;;;;;;;2.03;1.83;;;;;;;;;;5084190;28;20542;-63
2024/02/07 06:40:36;;;;;;;2.90;2.00;;;;;;;;;;5087624;28;20507;-61
2024/02/07 06:43:04;;;;;;;4.50;2.27;;;;;;;;;;5084008;28;20478;-61
2024/02/07 06:45:31;;;;;;;2.70;2.47;;;;;;;;;;5091638;28;20463;-62
2024/02/07 06:47:58;;;;;;;2.00;1.80;;;;;;;;;;5088899;28;20476;-61
2024/02/07 06:50:25;;;;;;;3.90;2.20;;;;;;;;;;5091607;28;20867;-62
2024/02/07 06:52:51;;;;;;;2.37;2.17;;;;;;;;;;5090772;28;20486;-63
2024/02/07 06:55:18;;;;;;;3.37;3.07;;;;;;;;;;5095856;28;20462;-59
2024/02/07 06:57:45;;;;;;;2.40;2.03;;;;;;;;;;5084487;28;20507;-62
2024/02/07 07:00:14;;;;;;;6.67;2.40;;;;;;;;;;5081232;28;20601;-62
2024/02/07 07:02:40;;;;;;;6.23;2.00;;;;;;;;;;5095715;28;20482;-60
2024/02/07 07:05:07;;;;;;;3.43;2.50;;;;;;;;;;5086721;28;20528;-62
2024/02/07 07:07:33;;;;;;;6.50;2.67;;;;;;;;;;5078408;28;20516;-63
2024/02/07 07:10:00;;;;;;;2.17;2.07;;;;;;;;;;5086563;28;20997;-61
2024/02/07 07:12:26;;;;;;;4.50;2.40;;;;;;;;;;5077581;28;20499;-60
2024/02/07 07:14:53;;;;;;;7.83;3.23;;;;;;;;;;5083911;28;20451;-63
2024/02/07 07:17:21;;;;;;;5.83;2.70;;;;;;;;;;5097511;28;20479;-62
2024/02/07 07:19:48;;;;;;;3.33;2.90;;;;;;;;;;5086369;28;20501;-61
2024/02/07 07:22:14;;;;;;;3.37;2.97;;;;;;;;;;5087765;28;20471;-76
2024/02/07 07:24:40;;;;;;;2.97;2.50;;;;;;;;;;5090323;28;20459;-62
2024/02/07 07:27:07;;;;;;;4.27;3.40;;;;;;;;;;5092051;28;20447;-59
2024/02/07 07:29:34;;;;;;;5.00;3.30;;;;;;;;;;5092815;28;20475;-60
2024/02/07 07:32:00;;;;;;;3.40;3.10;;;;;;;;;;5094912;28;20558;-63
2024/02/07 07:34:28;;;;;;;3.27;2.97;;;;;;;;;;5092007;28;20447;-62
2024/02/07 07:36:54;;;;;;;4.40;2.87;;;;;;;;;;5097618;28;20557;-61
2024/02/07 07:39:21;;;;;;;3.33;3.10;;;;;;;;;;5088269;28;20486;-62
2024/02/07 07:41:47;;;;;;;5.97;2.53;;;;;;;;;;5098010;28;20466;-61
2024/02/07 07:44:14;;;;;;;2.97;2.50;;;;;;;;;;5096748;28;20474;-63
2024/02/07 07:46:41;;;;;;;7.83;3.20;;;;;;;;;;5090272;28;20455;-66
2024/02/07 07:49:07;;;;;;;2.87;2.57;;;;;;;;;;5075826;28;20479;-65
2024/02/07 07:51:36;;;;;;;4.53;3.20;;;;;;;;;;5100587;28;20451;-65
2024/02/07 07:54:02;;;;;;;3.10;2.80;;;;;;;;;;5095720;28;20490;-65
2024/02/07 07:56:31;;;;;;;2.30;2.10;;;;;;;;;;5094085;28;20474;-65
2024/02/07 07:58:57;;;;;;;2.97;2.77;;;;;;;;;;5091866;28;20452;-61
2024/02/07 08:01:24;;;;;;;5.00;2.50;;;;;;;;;;5096893;28;20493;-67
2024/02/07 08:03:50;;;;;;;3.53;2.70;;;;;;;;;;5094169;28;20465;-68
2024/02/07 08:06:17;;;;;;;3.73;3.43;;;;;;;;;;5100520;28;20504;-66
2024/02/07 08:08:45;;;;;;;3.20;2.83;;;;;;;;;;5095916;28;20525;-66
2024/02/07 08:11:11;;;;;;;5.63;3.10;;;;;;;;;;5088087;28;20443;-65
2024/02/07 08:13:38;;;;;;;3.87;3.37;;;;;;;;;;5089556;28;20451;-68
2024/02/07 08:16:05;;;;;;;4.20;3.00;;;;;;;;;;5089500;28;20457;-63
2024/02/07 08:18:32;;;;;;;7.50;3.53;;;;;;;;;;5082845;28;20988;-63
2024/02/07 08:20:58;;;;;;;4.43;3.30;;;;;;;;;;5084480;28;20485;-64
2024/02/07 08:23:25;;;;;;;4.30;3.27;;;;;;;;;;5086771;28;20467;-65
2024/02/07 08:25:53;;;;;;;5.27;4.40;;;;;;;;;;5082397;28;20999;-64
2024/02/07 08:28:20;;;;;;;5.77;4.33;;;;;;;;;;5090282;28;20525;-64
2024/02/07 08:30:47;;;;;;;5.33;4.00;;;;;;;;;;5085821;28;21167;-67
2024/02/07 08:33:14;;;;;;;4.00;3.70;;;;;;;;;;5084547;28;20448;-65
2024/02/07 08:35:40;;;;;;;7.33;4.27;;;;;;;;;;5088958;28;20442;-63
2024/02/07 08:38:06;;;;;;;12.30;5.20;;;;;;;;;;5085497;28;20583;-66
2024/02/07 08:40:33;;;;;;;4.80;3.80;;;;;;;;;;5074975;28;20503;-64
2024/02/07 08:43:03;;;;;;;7.23;4.70;;;;;;;;;;5098126;28;20483;-60
2024/02/07 08:45:29;;;;;;;5.27;4.77;;;;;;;;;;5089840;28;20897;-69
2024/02/07 08:47:56;;;;;;;6.40;4.60;;;;;;;;;;5083635;28;20470;-65
2024/02/07 08:50:22;;;;;;;6.70;4.40;;;;;;;;;;5082533;28;20452;-69
2024/02/07 08:52:49;;;;;;;10.23;4.80;;;;;;;;;;5099552;28;20447;-66
2024/02/07 08:55:15;;;;;;;5.33;4.70;;;;;;;;;;5094824;28;20547;-65
2024/02/07 08:57:42;;;;;;;6.70;4.90;;;;;;;;;;5086019;28;20514;-67
2024/02/07 09:00:11;;;;;;;6.00;5.20;;;;;;;;;;5078235;28;20451;-68
2024/02/07 09:02:37;;;;;;;8.90;4.80;;;;;;;;;;5090691;28;20500;-66
2024/02/07 09:05:04;;;;;;;12.80;6.50;;;;;;;;;;5095252;28;20455;-65
2024/02/07 09:07:31;;;;;;;5.20;4.63;;;;;;;;;;5087197;28;20459;-67
2024/02/07 09:09:57;;;;;;;15.00;4.70;;;;;;;;;;5082481;28;20455;-67
2024/02/07 09:12:24;;;;;;;6.17;5.20;;;;;;;;;;5085081;28;20448;-66
2024/02/07 09:14:50;;;;;;;7.77;4.97;;;;;;;;;;5086026;28;20443;-67
2024/02/07 09:17:18;;;;;;;7.83;4.73;;;;;;;;;;5096969;28;20447;-66
2024/02/07 09:19:44;;;;;;;7.87;4.63;;;;;;;;;;5086600;28;20460;-65
2024/02/07 09:22:11;;;;;;;5.87;4.63;;;;;;;;;;5083992;28;20479;-66
2024/02/07 09:24:37;;;;;;;10.70;5.50;;;;;;;;;;5095564;28;20481;-67
2024/02/07 09:27:04;;;;;;;10.63;4.93;;;;;;;;;;5090811;28;20455;-66
2024/02/07 09:29:30;;;;;;;6.20;5.60;;;;;;;;;;5091653;28;20512;-66
2024/02/07 09:31:57;;;;;;;8.50;5.37;;;;;;;;;;5091968;28;20483;-65
2024/02/07 09:34:25;;;;;;;10.87;5.10;;;;;;;;;;5086710;28;21013;-66
2024/02/07 09:36:51;;;;;;;8.57;5.00;;;;;;;;;;5079706;28;20475;-66
2024/02/07 09:39:20;;;;;;;9.17;4.90;;;;;;;;;;5092651;28;20661;-66
2024/02/07 09:41:47;;;;;;;8.03;4.53;;;;;;;;;;5096606;28;20933;-65
2024/02/07 09:44:16;;;;;;;11.53;5.57;;;;;;;;;;5093274;28;20482;-65
2024/02/07 09:46:43;;;;;;;7.80;6.30;;;;;;;;;;5087443;28;20451;-65
2024/02/07 09:49:11;;;;;;;8.57;5.40;;;;;;;;;;5097995;28;20486;-65
2024/02/07 09:51:40;;;;;;;9.43;6.13;;;;;;;;;;5087363;28;20541;-63
2024/02/07 09:54:09;;;;;;;6.00;5.13;;;;;;;;;;5089608;28;20479;-65
2024/02/07 09:56:36;;;;;;;13.57;6.27;;;;;;;;;;5094544;28;20489;-62
2024/02/07 09:59:03;;;;;;;12.20;6.87;;;;;;;;;;5092176;28;20541;-68
2024/02/07 10:01:29;;;;;;;13.47;6.33;;;;;;;;;;5084256;28;20818;-66
2024/02/07 10:03:57;;;;;;;9.07;5.40;;;;;;;;;;5093198;28;20451;-70
2024/02/07 10:06:25;;;;;;;9.43;5.17;;;;;;;;;;5098805;28;20459;-64
2024/02/07 10:08:53;;;;;;;8.60;4.87;;;;;;;;;;5102802;28;20787;-64
2024/02/07 10:11:20;;;;;;;9.27;5.50;;;;;;;;;;5115921;28;20514;-69
2024/02/07 10:13:47;;;;;;;11.47;5.00;;;;;;;;;;5105015;28;20451;-64
2024/02/07 10:16:14;;;;;;;15.83;5.20;;;;;;;;;;5104201;28;20468;-64
2024/02/07 10:18:43;;;;;;;18.10;5.23;;;;;;;;;;5118341;28;20445;-64
2024/02/07 10:21:10;;;;;;;8.60;6.03;;;;;;;;;;5116259;28;20459;-63
2024/02/07 10:23:36;;;;;;;6.10;5.50;;;;;;;;;;5114918;28;20446;-63
2024/02/07 10:26:04;;;;;;;7.30;5.10;;;;;;;;;;5118440;28;20476;-66
2024/02/07 10:28:31;;;;;;;13.93;5.63;;;;;;;;;;5117888;28;20486;-65
2024/02/07 10:30:58;;;;;;;5.67;5.10;;;;;;;;;;5117986;28;20450;-63
2024/02/07 10:33:25;;;;;;;8.80;4.90;;;;;;;;;;5109143;28;20532;-65
2024/02/07 10:36:01;;;;;;;7.20;5.33;;;;;;;;;;5114986;28;20474;-63
2024/02/07 10:38:27;;;;;;;7.80;5.57;;;;;;;;;;5110948;28;20451;-61
2024/02/07 10:40:54;;;;;;;10.20;5.23;;;;;;;;;;5105267;28;21459;-65
2024/02/07 10:43:26;;;;;;;13.50;6.50;;;;;;;;;;5118073;28;20450;-64
2024/02/07 10:45:59;;;;;;;10.47;5.80;;;;;;;;;;5103883;28;20484;-61
2024/02/07 10:48:26;;;;;;;13.10;6.33;;;;;;;;;;5111566;28;20475;-63
2024/02/07 10:50:52;;;;;;;7.90;5.57;;;;;;;;;;5116438;28;20457;-65
2024/02/07 10:53:19;;;;;;;9.63;6.73;;;;;;;;;;5114303;28;20443;-65
2024/02/07 10:55:45;;;;;;;10.33;5.63;;;;;;;;;;5106764;28;20494;-64
2024/02/07 10:58:17;;;;;;;11.63;5.93;;;;;;;;;;5112674;28;20477;-64
2024/02/07 11:00:45;;;;;;;8.40;5.90;;;;;;;;;;5111701;28;20449;-66
2024/02/07 11:03:13;;;;;;;14.83;6.27;;;;;;;;;;5103091;28;20749;-65
2024/02/07 11:05:40;;;;;;;8.90;5.47;;;;;;;;;;5107791;28;20450;-61
2024/02/07 11:08:07;;;;;;;9.90;5.57;;;;;;;;;;5110758;28;20841;-64
2024/02/07 11:10:34;;;;;;;8.97;6.13;;;;;;;;;;5111129;28;20466;-66
2024/02/07 11:13:01;;;;;;;9.50;5.53;;;;;;;;;;5113249;28;20941;-63
2024/02/07 11:15:28;;;;;;;12.50;5.73;;;;;;;;;;5109427;28;20446;-62
2024/02/07 11:17:55;;;;;;;11.23;7.30;;;;;;;;;;5117968;28;20442;-64
2024/02/07 11:20:22;;;;;;;8.70;6.13;;;;;;;;;;5112107;28;20454;-63
2024/02/07 11:22:50;;;;;;;8.10;5.90;;;;;;;;;;5097993;28;20447;-67
2024/02/07 11:25:18;;;;;;;11.87;6.80;;;;;;;;;;5112095;28;20447;-67
2024/02/07 11:27:44;;;;;;;13.77;8.00;;;;;;;;;;5116064;28;20467;-62
2024/02/07 11:30:11;;;;;;;16.60;7.20;;;;;;;;;;5116531;28;20879;-64
2024/02/07 11:32:38;;;;;;;9.33;5.90;;;;;;;;;;5114406;28;20990;-65
2024/02/07 11:35:08;;;;;;;10.53;6.07;;;;;;;;;;5113072;28;20459;-66
2024/02/07 11:37:36;;;;;;;14.87;7.07;;;;;;;;;;5103265;28;20489;-64
2024/02/07 11:40:04;;;;;;;8.53;5.50;;;;;;;;;;5103845;28;20473;-63
2024/02/07 11:42:35;;;;;;;8.33;6.47;;;;;;;;;;5109115;28;20447;-64
2024/02/07 11:45:03;;;;;;;13.63;6.50;;;;;;;;;;5111560;28;20446;-64
2024/02/07 11:47:30;;;;;;;11.60;6.23;;;;;;;;;;5107068;28;20451;-65
2024/02/07 11:49:58;;;;;;;10.90;6.60;;;;;;;;;;5116759;28;20481;-64
2024/02/07 11:52:30;;;;;;;9.33;6.37;;;;;;;;;;5107619;28;20442;-61
2024/02/07 11:55:03;;;;;;;14.63;6.63;;;;;;;;;;5107831;28;20477;-62
2024/02/07 11:57:31;;;;;;;9.73;6.20;;;;;;;;;;5117591;28;20515;-64
2024/02/07 11:59:59;;;;;;;10.33;5.60;;;;;;;;;;5110511;28;20477;-66
2024/02/07 12:02:26;;;;;;;9.93;6.53;;;;;;;;;;5111852;28;20449;-62
2024/02/07 12:04:52;;;;;;;6.83;6.13;;;;;;;;;;5116649;28;20450;-63
2024/02/07 12:07:19;;;;;;;8.40;5.77;;;;;;;;;;5116931;28;20439;-63
2024/02/07 12:09:47;;;;;;;9.60;7.13;;;;;;;;;;5116109;28;20536;-62
2024/02/07 12:12:15;;;;;;;14.47;6.33;;;;;;;;;;5112427;28;20502;-68
2024/02/07 12:14:42;;;;;;;8.00;6.10;;;;;;;;;;5110570;28;20481;-66
2024/02/07 12:17:09;;;;;;;14.07;7.00;;;;;;;;;;5109878;28;20481;-63
2024/02/07 12:19:36;;;;;;;12.57;6.20;;;;;;;;;;5123894;27;20491;-66
2024/02/07 12:22:03;;;;;;;11.27;6.57;;;;;;;;;;5117081;28;20480;-66
2024/02/07 12:24:31;;;;;;;14.10;6.33;;;;;;;;;;5112103;28;20473;-64
2024/02/07 12:27:08;;;;;;;11.27;6.00;;;;;;;;;;5112343;28;20454;-63
2024/02/07 12:29:35;;;;;;;13.70;6.80;;;;;;;;;;5109435;28;20494;-65
2024/02/07 12:32:01;;;;;;;11.80;7.60;;;;;;;;;;5105054;28;20474;-66
2024/02/07 12:34:28;;;;;;;9.47;7.97;;;;;;;;;;5118810;27;20451;-64
2024/02/07 12:36:54;;;;;;;13.03;7.37;;;;;;;;;;5119055;28;20493;-65
2024/02/07 12:39:21;;;;;;;9.43;6.73;;;;;;;;;;5105562;28;20483;-63
2024/02/07 12:41:48;;;;;;;10.00;7.50;;;;;;;;;;5111663;28;20442;-62
2024/02/07 12:44:16;;;;;;;18.97;6.50;;;;;;;;;;5110227;28;20450;-64
2024/02/07 12:46:43;;;;;;;11.37;7.70;;;;;;;;;;5105374;28;20489;-66
2024/02/07 12:49:10;;;;;;;19.07;9.03;;;;;;;;;;5109967;28;21309;-66
2024/02/07 12:51:36;;;;;;;10.53;8.33;;;;;;;;;;5109963;28;20501;-67
2024/02/07 12:54:03;;;;;;;10.27;7.13;;;;;;;;;;5115063;28;20478;-66
2024/02/07 12:56:29;;;;;;;8.67;6.83;;;;;;;;;;5118110;27;20462;-65
2024/02/07 12:58:56;;;;;;;10.77;7.90;;;;;;;;;;5099175;28;20454;-65
2024/02/07 13:01:24;;;;;;;12.63;6.13;;;;;;;;;;5114263;28;20530;-67
2024/02/07 13:03:50;;;;;;;9.07;7.60;;;;;;;;;;5119795;28;20938;-67
2024/02/07 13:06:20;;;;;;;7.50;6.70;;;;;;;;;;5117873;28;20453;-63
2024/02/07 13:08:47;;;;;;;15.10;7.83;;;;;;;;;;5106176;28;20701;-65
2024/02/07 13:11:14;;;;;;;8.67;6.00;;;;;;;;;;5106904;28;20454;-64
2024/02/07 13:13:40;;;;;;;11.60;6.40;;;;;;;;;;5113071;28;20554;-64
2024/02/07 13:16:08;;;;;;;18.70;8.33;;;;;;;;;;5103657;28;20492;-64
2024/02/07 13:18:36;;;;;;;11.57;7.20;;;;;;;;;;5109547;28;20917;-66
2024/02/07 13:21:05;;;;;;;10.50;7.47;;;;;;;;;;5106921;28;20477;-68
2024/02/07 13:23:33;;;;;;;10.23;7.77;;;;;;;;;;5115886;28;20514;-71
2024/02/07 13:26:00;;;;;;;6.70;6.10;;;;;;;;;;5107622;28;20486;-69
2024/02/07 13:28:26;;;;;;;13.30;7.30;;;;;;;;;;5119756;28;20472;-64
2024/02/07 13:30:53;;;;;;;14.43;7.40;;;;;;;;;;5101238;28;20592;-70
2024/02/07 13:33:19;;;;;;;10.53;7.83;;;;;;;;;;5114069;28;20450;-67
2024/02/07 13:35:48;;;;;;;17.60;7.83;;;;;;;;;;5103264;28;20490;-63
2024/02/07 13:38:15;;;;;;;10.60;7.13;;;;;;;;;;5112425;27;20957;-65
2024/02/07 13:40:41;;;;;;;8.43;7.13;;;;;;;;;;5121112;27;20508;-68
2024/02/07 13:43:08;;;;;;;8.50;7.27;;;;;;;;;;5115775;28;20496;-65
2024/02/07 13:45:34;;;;;;;9.40;8.50;;;;;;;;;;5118364;27;20457;-65
2024/02/07 13:48:01;;;;;;;12.57;8.43;;;;;;;;;;5120954;27;20476;-65
2024/02/07 13:50:27;;;;;;;8.50;7.10;;;;;;;;;;5110426;27;20491;-66
2024/02/07 13:52:55;;;;;;;7.50;6.77;;;;;;;;;;5110640;27;20465;-66
2024/02/07 13:55:22;;;;;;;14.10;7.70;;;;;;;;;;5121194;27;20542;-65
2024/02/07 13:57:48;;;;;;;13.03;8.07;;;;;;;;;;5107727;27;20971;-64
2024/02/07 14:00:16;;;;;;;11.93;7.27;;;;;;;;;;5106976;28;20682;-64
2024/02/07 14:02:44;;;;;;;17.07;8.37;;;;;;;;;;5109084;28;20461;-67
2024/02/07 14:05:12;;;;;;;14.30;8.80;;;;;;;;;;5101909;27;20537;-62
2024/02/07 14:07:38;;;;;;;12.40;7.40;;;;;;;;;;5102434;27;20443;-68
2024/02/07 14:10:06;;;;;;;9.50;6.90;;;;;;;;;;5108061;27;20484;-64
2024/02/07 14:12:33;;;;;;;10.07;8.07;;;;;;;;;;5106973;28;20471;-74
2024/02/07 14:15:00;;;;;;;10.73;8.53;;;;;;;;;;5114405;27;20690;-76
2024/02/07 14:17:27;;;;;;;16.43;9.23;;;;;;;;;;5124631;27;20445;-76
2024/02/07 14:19:53;;;;;;;11.70;7.83;;;;;;;;;;5123329;27;20442;-73
2024/02/07 14:22:20;;;;;;;11.43;7.87;;;;;;;;;;5116056;27;20466;-71
2024/02/07 14:24:46;;;;;;;10.00;8.63;;;;;;;;;;5114728;27;20805;-71
2024/02/07 14:27:15;;;;;;;10.50;7.13;;;;;;;;;;5123361;27;20449;-71
2024/02/07 14:29:40;;;;;;;9.70;7.57;;;;;;;;;;5109362;27;20553;-71
2024/02/07 14:32:08;;;;;;;9.80;8.43;;;;;;;;;;5123286;27;20462;-71
2024/02/07 14:34:35;;;;;;;10.53;8.10;;;;;;;;;;5117275;27;20209;-73
2024/02/07 14:37:01;;;;;;;8.70;7.90;;;;;;;;;;5122191;27;20473;-75
2024/02/07 14:39:30;;;;;;;9.73;8.10;;;;;;;;;;5112458;27;20485;-72
2024/02/07 14:41:57;;;;;;;11.60;8.80;;;;;;;;;;5115467;27;20458;-69
2024/02/07 14:44:25;;;;;;;15.60;8.10;;;;;;;;;;5108018;27;20454;-73
2024/02/07 14:46:51;;;;;;;7.03;6.57;;;;;;;;;;5110511;28;20686;-73
2024/02/07 14:49:18;;;;;;;10.13;8.50;;;;;;;;;;5116871;27;20469;-71
2024/02/07 14:51:44;;;;;;;8.13;7.30;;;;;;;;;;5115099;27;20518;-73
2024/02/07 14:54:11;;;;;;;9.90;6.63;;;;;;;;;;5114120;27;20445;-72
2024/02/07 14:56:37;;;;;;;8.67;7.77;;;;;;;;;;5103304;28;20454;-74
2024/02/07 14:59:04;;;;;;;12.03;7.90;;;;;;;;;;5117147;27;20504;-69
2024/02/07 15:01:32;;;;;;;9.70;7.83;;;;;;;;;;5127737;27;20463;-70
2024/02/07 15:03:58;;;;;;;10.47;7.67;;;;;;;;;;5111809;28;20456;-72
2024/02/07 15:06:25;;;;;;;8.20;7.40;;;;;;;;;;5109867;28;20454;-70
2024/02/07 15:08:51;;;;;;;11.93;7.20;;;;;;;;;;5117895;28;20935;-73
2024/02/07 15:11:18;;;;;;;11.33;6.90;;;;;;;;;;5115393;28;20481;-72
2024/02/07 15:13:44;;;;;;;12.07;7.33;;;;;;;;;;5107063;28;20462;-73
2024/02/07 15:16:13;;;;;;;10.20;7.33;;;;;;;;;;5103292;28;20455;-72
2024/02/07 15:18:41;;;;;;;8.90;8.00;;;;;;;;;;5104173;28;20458;-73
2024/02/07 15:21:07;;;;;;;9.33;8.43;;;;;;;;;;5108187;28;20484;-74
2024/02/07 15:23:34;;;;;;;15.17;6.73;;;;;;;;;;5104982;28;20451;-72
2024/02/07 15:26:01;;;;;;;14.50;6.30;;;;;;;;;;5101138;28;20478;-70
2024/02/07 15:28:27;;;;;;;14.63;7.90;;;;;;;;;;5101108;28;20443;-69
2024/02/07 15:30:54;;;;;;;10.60;6.63;;;;;;;;;;5104541;28;20509;-70
2024/02/07 15:33:22;;;;;;;8.20;7.33;;;;;;;;;;5115067;28;20465;-76
2024/02/07 15:35:51;;;;;;;8.47;7.00;;;;;;;;;;5103384;28;20466;-72
2024/02/07 15:38:17;;;;;;;14.37;7.87;;;;;;;;;;5104792;28;20526;-70
2024/02/07 15:40:44;;;;;;;13.53;8.00;;;;;;;;;;5107805;28;20442;-71
2024/02/07 15:43:09;;;;;;;11.67;6.77;;;;;;;;;;5101874;28;20527;-73